createdAt,value
2019-01-15T00:00:31.082Z,993.26
2019-01-15T00:01:30.997Z,993.25
2019-01-15T00:02:30.912Z,993.22
2019-01-15T00:03:30.829Z,993.22
2019-01-15T00:04:30.745Z,993.21
2019-01-15T00:05:30.761Z,993.19
2019-01-15T00:06:30.579Z,993.19
2019-01-15T00:07:30.492Z,993.15
2019-01-15T00:08:30.409Z,993.21
2019-01-15T00:09:30.329Z,993.25
2019-01-15T00:10:30.240Z,993.23
2019-01-15T00:11:30.157Z,993.23
2019-01-15T00:12:30.071Z,993.24
2019-01-15T00:13:29.987Z,993.28
2019-01-15T00:14:29.902Z,993.24
2019-01-15T00:15:29.819Z,993.24
2019-01-15T00:16:29.734Z,993.24
2019-01-15T00:17:29.649Z,993.26
2019-01-15T00:18:29.565Z,993.23
2019-01-15T00:19:29.481Z,993.22
2019-01-15T00:20:29.397Z,993.22
2019-01-15T00:21:29.313Z,993.16
2019-01-15T00:22:29.228Z,993.15
2019-01-15T00:23:29.145Z,993.13
2019-01-15T00:24:29.062Z,993.11
2019-01-15T00:25:28.977Z,993.15
2019-01-15T00:26:28.893Z,993.13
2019-01-15T00:27:28.809Z,993.13
2019-01-15T00:28:28.723Z,993.24
2019-01-15T00:29:28.639Z,993.20
2019-01-15T00:30:28.556Z,993.19
2019-01-15T00:31:28.472Z,993.16
2019-01-15T00:32:28.387Z,993.21
2019-01-15T00:33:28.305Z,993.23
2019-01-15T00:34:28.219Z,993.20
2019-01-15T00:35:28.136Z,993.24
2019-01-15T00:36:28.051Z,993.22
2019-01-15T00:37:27.967Z,993.23
2019-01-15T00:38:27.881Z,993.25
2019-01-15T00:39:27.799Z,993.27
2019-01-15T00:40:27.715Z,993.22
2019-01-15T00:41:27.632Z,993.21
2019-01-15T00:42:27.547Z,993.26
2019-01-15T00:43:27.462Z,993.27
2019-01-15T00:44:27.378Z,993.27
2019-01-15T00:45:27.293Z,993.33
2019-01-15T00:46:27.212Z,993.31
2019-01-15T00:47:27.125Z,993.31
2019-01-15T00:48:27.392Z,993.32
2019-01-15T00:49:26.957Z,993.31
2019-01-15T00:50:26.873Z,993.32
2019-01-15T00:51:26.788Z,993.32
2019-01-15T00:52:26.705Z,993.33
2019-01-15T00:53:26.622Z,993.43
2019-01-15T00:54:26.537Z,993.43
2019-01-15T00:55:26.455Z,993.41
2019-01-15T00:56:26.369Z,993.46
2019-01-15T00:57:26.284Z,993.46
2019-01-15T00:58:26.199Z,993.46
2019-01-15T00:59:26.116Z,993.47
2019-01-15T01:00:26.031Z,993.43
2019-01-15T01:01:25.950Z,993.44
2019-01-15T01:02:25.863Z,993.51
2019-01-15T01:03:25.779Z,993.51
2019-01-15T01:04:25.798Z,993.50
2019-01-15T01:05:25.612Z,993.49
2019-01-15T01:06:25.526Z,993.45
2019-01-15T01:07:25.442Z,993.50
2019-01-15T01:08:25.361Z,993.55
2019-01-15T01:09:25.276Z,993.52
2019-01-15T01:10:25.190Z,993.60
2019-01-15T01:11:25.107Z,993.61
2019-01-15T01:12:25.022Z,993.57
2019-01-15T01:13:24.939Z,993.62
2019-01-15T01:14:24.888Z,993.59
2019-01-15T01:15:24.768Z,993.60
2019-01-15T01:16:24.685Z,993.61
2019-01-15T01:17:24.601Z,993.60
2019-01-15T01:18:24.516Z,993.63
2019-01-15T01:19:24.431Z,993.67
2019-01-15T01:20:24.348Z,993.66
2019-01-15T01:21:24.264Z,993.64
2019-01-15T01:22:24.180Z,993.67
2019-01-15T01:23:24.095Z,993.61
2019-01-15T01:24:24.011Z,993.61
2019-01-15T01:25:23.927Z,993.60
2019-01-15T01:26:23.843Z,993.64
2019-01-15T01:27:23.759Z,993.64
2019-01-15T01:28:23.733Z,993.66
2019-01-15T01:29:23.591Z,993.69
2019-01-15T01:30:23.505Z,993.74
2019-01-15T01:31:23.423Z,993.75
2019-01-15T01:32:23.339Z,993.76
2019-01-15T01:33:23.255Z,993.71
2019-01-15T01:34:23.172Z,993.77
2019-01-15T01:35:23.085Z,993.73
2019-01-15T01:36:23.003Z,993.75
2019-01-15T01:37:22.919Z,993.71
2019-01-15T01:38:22.836Z,993.70
2019-01-15T01:39:22.753Z,993.71
2019-01-15T01:40:22.668Z,993.75
2019-01-15T01:41:22.584Z,993.71
2019-01-15T01:42:29.252Z,993.70
2019-01-15T01:43:22.415Z,993.74
2019-01-15T01:44:22.334Z,993.75
2019-01-15T01:45:22.248Z,993.78
2019-01-15T01:46:22.163Z,993.76
2019-01-15T01:47:22.080Z,993.78
2019-01-15T01:48:21.995Z,993.77
2019-01-15T01:49:21.913Z,993.81
2019-01-15T01:50:21.927Z,993.79
2019-01-15T01:51:21.745Z,993.76
2019-01-15T01:52:21.661Z,993.75
2019-01-15T01:53:21.578Z,993.71
2019-01-15T01:54:21.495Z,993.71
2019-01-15T01:55:21.408Z,993.77
2019-01-15T01:56:21.326Z,993.77
2019-01-15T01:57:21.241Z,993.75
2019-01-15T01:58:21.157Z,993.79
2019-01-15T01:59:21.073Z,993.78
2019-01-15T02:00:20.992Z,993.79
2019-01-15T02:01:20.906Z,993.74
2019-01-15T02:02:20.820Z,993.77
2019-01-15T02:03:20.737Z,993.78
2019-01-15T02:04:20.666Z,993.80
2019-01-15T02:05:20.671Z,993.79
2019-01-15T02:06:20.486Z,993.79
2019-01-15T02:07:20.402Z,993.77
2019-01-15T02:08:20.318Z,993.83
2019-01-15T02:09:20.236Z,993.80
2019-01-15T02:10:20.151Z,993.85
2019-01-15T02:11:20.067Z,993.88
2019-01-15T02:12:19.986Z,993.86
2019-01-15T02:13:19.900Z,993.88
2019-01-15T02:14:19.816Z,993.84
2019-01-15T02:15:19.732Z,993.87
2019-01-15T02:16:19.648Z,993.88
2019-01-15T02:17:19.567Z,993.89
2019-01-15T02:18:19.481Z,993.92
2019-01-15T02:19:19.397Z,993.91
2019-01-15T02:20:19.316Z,993.94
2019-01-15T02:21:19.579Z,993.96
2019-01-15T02:22:19.145Z,993.95
2019-01-15T02:23:19.062Z,993.96
2019-01-15T02:24:18.978Z,993.96
2019-01-15T02:25:18.894Z,993.98
2019-01-15T02:26:18.810Z,993.95
2019-01-15T02:27:18.729Z,993.95
2019-01-15T02:28:18.643Z,993.96
2019-01-15T02:29:18.559Z,994.00
2019-01-15T02:30:18.476Z,994.01
2019-01-15T02:31:18.391Z,994.03
2019-01-15T02:32:18.307Z,993.92
2019-01-15T02:33:18.229Z,993.98
2019-01-15T02:34:18.194Z,993.95
2019-01-15T02:35:18.056Z,993.92
2019-01-15T02:36:17.972Z,993.97
2019-01-15T02:37:17.888Z,993.95
2019-01-15T02:38:17.803Z,993.94
2019-01-15T02:39:17.719Z,993.93
2019-01-15T02:40:17.643Z,993.94
2019-01-15T02:41:17.552Z,993.94
2019-01-15T02:42:17.568Z,993.90
2019-01-15T02:43:17.389Z,993.95
2019-01-15T02:44:17.304Z,993.90
2019-01-15T02:45:17.223Z,993.93
2019-01-15T02:46:17.132Z,993.93
2019-01-15T02:47:17.047Z,993.88
2019-01-15T02:48:16.965Z,993.93
2019-01-15T02:49:16.881Z,993.89
2019-01-15T02:50:16.857Z,993.91
2019-01-15T02:51:16.713Z,993.94
2019-01-15T02:52:16.728Z,993.92
2019-01-15T02:53:16.544Z,993.97
2019-01-15T02:54:16.460Z,993.94
2019-01-15T02:55:16.376Z,993.94
2019-01-15T02:56:16.294Z,994.02
2019-01-15T02:57:16.209Z,994.05
2019-01-15T02:58:16.127Z,994.04
2019-01-15T02:59:16.042Z,993.99
2019-01-15T03:00:15.963Z,994.03
2019-01-15T03:01:15.882Z,994.05
2019-01-15T03:02:15.790Z,994.03
2019-01-15T03:03:15.709Z,994.02
2019-01-15T03:04:15.623Z,993.99
2019-01-15T03:05:15.539Z,993.99
2019-01-15T03:06:15.455Z,993.96
2019-01-15T03:07:15.370Z,994.01
2019-01-15T03:08:15.286Z,994.02
2019-01-15T03:09:15.204Z,994.04
2019-01-15T03:10:15.118Z,994.03
2019-01-15T03:11:15.035Z,994.12
2019-01-15T03:12:14.956Z,994.06
2019-01-15T03:13:14.869Z,994.08
2019-01-15T03:14:14.782Z,994.06
2019-01-15T03:15:14.699Z,994.08
2019-01-15T03:16:14.617Z,994.10
2019-01-15T03:17:14.530Z,994.13
2019-01-15T03:18:14.447Z,994.09
2019-01-15T03:19:14.363Z,994.11
2019-01-15T03:20:14.278Z,994.08
2019-01-15T03:21:14.194Z,994.10
2019-01-15T03:22:14.109Z,994.06
2019-01-15T03:23:14.075Z,994.03
2019-01-15T03:24:13.943Z,994.08
2019-01-15T03:25:13.860Z,994.07
2019-01-15T03:26:13.788Z,994.04
2019-01-15T03:27:13.692Z,994.01
2019-01-15T03:28:13.607Z,994.05
2019-01-15T03:29:13.524Z,994.06
2019-01-15T03:30:13.439Z,994.11
2019-01-15T03:31:13.355Z,994.10
2019-01-15T03:32:13.274Z,994.14
2019-01-15T03:33:13.291Z,994.17
2019-01-15T03:34:13.104Z,994.09
2019-01-15T03:35:13.019Z,994.09
2019-01-15T03:36:12.937Z,994.07
2019-01-15T03:37:12.853Z,994.09
2019-01-15T03:38:12.768Z,994.03
2019-01-15T03:39:12.685Z,994.00
2019-01-15T03:40:12.601Z,994.03
2019-01-15T03:41:12.519Z,994.06
2019-01-15T03:42:12.433Z,994.07
2019-01-15T03:43:12.449Z,994.06
2019-01-15T03:44:12.265Z,994.00
2019-01-15T03:45:12.182Z,993.99
2019-01-15T03:46:12.097Z,994.01
2019-01-15T03:47:12.016Z,994.03
2019-01-15T03:48:11.930Z,993.98
2019-01-15T03:49:11.849Z,994.00
2019-01-15T03:50:11.763Z,994.00
2019-01-15T03:51:11.679Z,993.93
2019-01-15T03:52:11.594Z,993.96
2019-01-15T03:53:11.518Z,993.95
2019-01-15T03:54:11.426Z,993.99
2019-01-15T03:55:11.345Z,993.97
2019-01-15T03:56:11.265Z,994.00
2019-01-15T03:57:11.177Z,994.03
2019-01-15T03:58:11.091Z,993.98
2019-01-15T03:59:11.010Z,993.98
2019-01-15T04:00:10.926Z,993.97
2019-01-15T04:01:10.849Z,993.94
2019-01-15T04:02:10.757Z,993.93
2019-01-15T04:03:10.684Z,993.93
2019-01-15T04:04:10.588Z,993.92
2019-01-15T04:05:10.605Z,993.90
2019-01-15T04:06:10.421Z,993.96
2019-01-15T04:07:10.338Z,993.92
2019-01-15T04:08:10.254Z,993.93
2019-01-15T04:09:10.187Z,993.99
2019-01-15T04:10:10.087Z,993.97
2019-01-15T04:11:10.002Z,993.94
2019-01-15T04:12:09.920Z,993.94
2019-01-15T04:13:11.495Z,993.92
2019-01-15T04:14:09.752Z,993.96
2019-01-15T04:15:09.668Z,994.01
2019-01-15T04:16:09.599Z,994.02
2019-01-15T04:17:09.503Z,994.03
2019-01-15T04:18:09.417Z,994.01
2019-01-15T04:19:09.335Z,994.02
2019-01-15T04:20:09.251Z,994.05
2019-01-15T04:21:09.167Z,994.05
2019-01-15T04:22:09.162Z,994.00
2019-01-15T04:23:09.001Z,994.02
2019-01-15T04:24:08.917Z,994.02
2019-01-15T04:25:08.860Z,994.03
2019-01-15T04:26:08.750Z,993.96
2019-01-15T04:27:08.667Z,993.86
2019-01-15T04:28:08.583Z,993.73
2019-01-15T04:29:08.499Z,993.62
2019-01-15T04:30:08.467Z,993.62
2019-01-15T04:31:08.331Z,993.63
2019-01-15T04:32:08.251Z,993.66
2019-01-15T04:33:08.188Z,993.68
2019-01-15T04:34:08.081Z,993.70
2019-01-15T04:35:07.999Z,993.79
2019-01-15T04:36:07.916Z,993.77
2019-01-15T04:37:07.837Z,993.78
2019-01-15T04:38:07.746Z,993.73
2019-01-15T04:39:07.664Z,993.75
2019-01-15T04:40:07.579Z,993.67
2019-01-15T04:41:07.596Z,993.66
2019-01-15T04:42:07.413Z,993.68
2019-01-15T04:43:07.327Z,993.67
2019-01-15T04:44:07.245Z,993.72
2019-01-15T04:45:07.161Z,993.67
2019-01-15T04:46:07.078Z,993.68
2019-01-15T04:47:06.994Z,993.68
2019-01-15T04:48:06.909Z,993.71
2019-01-15T04:49:06.827Z,993.67
2019-01-15T04:50:06.742Z,993.69
2019-01-15T04:51:06.665Z,993.66
2019-01-15T04:52:06.579Z,993.64
2019-01-15T04:53:06.492Z,993.61
2019-01-15T04:54:06.407Z,993.69
2019-01-15T04:55:06.325Z,993.64
2019-01-15T04:56:06.239Z,993.64
2019-01-15T04:57:06.155Z,993.63
2019-01-15T04:58:06.071Z,993.65
2019-01-15T04:59:05.990Z,993.66
2019-01-15T05:00:05.906Z,993.66
2019-01-15T05:01:05.822Z,993.71
2019-01-15T05:02:05.735Z,993.66
2019-01-15T05:03:05.653Z,993.70
2019-01-15T05:04:05.620Z,993.71
2019-01-15T05:05:05.486Z,993.70
2019-01-15T05:06:05.402Z,993.73
2019-01-15T05:07:05.318Z,993.77
2019-01-15T05:08:05.235Z,993.68
2019-01-15T05:09:05.156Z,993.70
2019-01-15T05:10:05.066Z,993.81
2019-01-15T05:11:04.981Z,993.78
2019-01-15T05:12:04.897Z,993.79
2019-01-15T05:13:04.816Z,993.79
2019-01-15T05:14:04.729Z,993.80
2019-01-15T05:15:04.645Z,993.85
2019-01-15T05:16:04.564Z,993.90
2019-01-15T05:17:04.480Z,993.89
2019-01-15T05:18:04.394Z,993.90
2019-01-15T05:19:04.311Z,993.93
2019-01-15T05:20:04.227Z,993.97
2019-01-15T05:21:04.147Z,993.93
2019-01-15T05:22:04.059Z,993.95
2019-01-15T05:23:03.977Z,993.97
2019-01-15T05:24:03.894Z,993.90
2019-01-15T05:25:03.808Z,993.93
2019-01-15T05:26:03.724Z,993.93
2019-01-15T05:27:03.642Z,993.91
2019-01-15T05:28:03.556Z,993.91
2019-01-15T05:29:03.473Z,993.87
2019-01-15T05:30:03.388Z,993.85
2019-01-15T05:31:03.306Z,993.91
2019-01-15T05:32:03.221Z,993.83
2019-01-15T05:33:03.139Z,993.83
2019-01-15T05:34:03.054Z,993.84
2019-01-15T05:35:02.971Z,993.81
2019-01-15T05:36:02.887Z,993.79
2019-01-15T05:37:02.802Z,993.79
2019-01-15T05:38:02.718Z,993.78
2019-01-15T05:39:02.633Z,993.77
2019-01-15T05:40:02.552Z,993.80
2019-01-15T05:41:02.465Z,993.81
2019-01-15T05:42:02.383Z,993.80
2019-01-15T05:43:02.299Z,993.84
2019-01-15T05:44:02.216Z,993.82
2019-01-15T05:45:02.132Z,993.83
2019-01-15T05:46:02.052Z,993.78
2019-01-15T05:47:01.963Z,993.82
2019-01-15T05:48:01.879Z,993.78
2019-01-15T05:49:01.796Z,993.78
2019-01-15T05:50:01.717Z,993.77
2019-01-15T05:51:01.727Z,993.80
2019-01-15T05:52:01.544Z,993.78
2019-01-15T05:53:01.460Z,993.79
2019-01-15T05:54:01.377Z,993.80
2019-01-15T05:55:01.292Z,993.88
2019-01-15T05:56:01.209Z,993.81
2019-01-15T05:57:01.126Z,993.84
2019-01-15T05:58:01.041Z,993.80
2019-01-15T05:59:00.955Z,993.79
2019-01-15T06:00:00.872Z,993.79
2019-01-15T06:01:00.789Z,993.78
2019-01-15T06:02:00.705Z,993.78
2019-01-15T06:03:00.620Z,993.75
2019-01-15T06:04:00.547Z,993.82
2019-01-15T06:05:00.456Z,993.81
2019-01-15T06:06:00.368Z,993.84
2019-01-15T06:07:00.283Z,993.82
2019-01-15T06:08:00.201Z,993.74
2019-01-15T06:09:00.123Z,993.70
2019-01-15T06:10:00.035Z,993.78
2019-01-15T06:10:59.947Z,993.76
2019-01-15T06:11:59.864Z,993.75
2019-01-15T06:12:59.779Z,993.79
2019-01-15T06:13:59.694Z,993.78
2019-01-15T06:14:59.611Z,993.77
2019-01-15T06:15:59.526Z,993.74
2019-01-15T06:16:59.444Z,993.71
2019-01-15T06:17:59.360Z,993.71
2019-01-15T06:18:59.276Z,993.73
2019-01-15T06:19:59.192Z,993.68
2019-01-15T06:20:59.106Z,993.75
2019-01-15T06:21:59.022Z,993.74
2019-01-15T06:22:58.939Z,993.77
2019-01-15T06:23:58.855Z,993.79
2019-01-15T06:24:58.770Z,993.78
2019-01-15T06:25:58.688Z,993.81
2019-01-15T06:26:58.602Z,993.82
2019-01-15T06:27:58.519Z,993.80
2019-01-15T06:28:58.437Z,993.71
2019-01-15T06:29:58.350Z,993.69
2019-01-15T06:30:58.267Z,993.65
2019-01-15T06:31:58.182Z,993.63
2019-01-15T06:32:58.098Z,993.67
2019-01-15T06:33:58.014Z,993.64
2019-01-15T06:34:57.937Z,993.60
2019-01-15T06:35:57.847Z,993.58
2019-01-15T06:36:57.764Z,993.61
2019-01-15T06:37:57.679Z,993.60
2019-01-15T06:38:57.594Z,993.61
2019-01-15T06:39:57.513Z,993.64
2019-01-15T06:40:57.431Z,993.63
2019-01-15T06:41:57.344Z,993.68
2019-01-15T06:42:57.260Z,993.64
2019-01-15T06:43:57.176Z,993.64
2019-01-15T06:44:57.096Z,993.59
2019-01-15T06:45:57.007Z,993.58
2019-01-15T06:46:56.929Z,993.59
2019-01-15T06:47:56.842Z,993.56
2019-01-15T06:48:56.756Z,993.51
2019-01-15T06:49:56.670Z,993.54
2019-01-15T06:50:56.587Z,993.54
2019-01-15T06:51:56.503Z,993.58
2019-01-15T06:52:56.418Z,993.57
2019-01-15T06:53:56.333Z,993.64
2019-01-15T06:54:56.249Z,993.63
2019-01-15T06:55:56.168Z,993.63
2019-01-15T06:56:56.082Z,993.57
2019-01-15T06:57:55.997Z,993.60
2019-01-15T06:58:55.916Z,993.63
2019-01-15T06:59:55.829Z,993.58
2019-01-15T07:00:55.744Z,993.55
2019-01-15T07:01:55.660Z,993.55
2019-01-15T07:02:55.575Z,993.53
2019-01-15T07:03:55.491Z,993.52
2019-01-15T07:04:55.411Z,993.56
2019-01-15T07:05:55.323Z,993.58
2019-01-15T07:06:55.237Z,993.63
2019-01-15T07:07:55.154Z,993.61
2019-01-15T07:08:55.069Z,993.67
2019-01-15T07:09:54.985Z,993.62
2019-01-15T07:10:54.903Z,993.70
2019-01-15T07:11:54.817Z,993.68
2019-01-15T07:12:54.743Z,993.74
2019-01-15T07:13:57.120Z,993.70
2019-01-15T07:14:54.564Z,993.67
2019-01-15T07:15:54.481Z,993.72
2019-01-15T07:16:54.396Z,993.76
2019-01-15T07:17:54.315Z,993.78
2019-01-15T07:18:54.256Z,993.79
2019-01-15T07:19:54.143Z,993.82
2019-01-15T07:20:54.059Z,993.78
2019-01-15T07:21:53.976Z,993.76
2019-01-15T07:22:53.891Z,993.75
2019-01-15T07:23:53.805Z,993.80
2019-01-15T07:24:53.822Z,993.83
2019-01-15T07:25:53.643Z,993.82
2019-01-15T07:26:53.553Z,993.69
2019-01-15T07:27:53.469Z,993.72
2019-01-15T07:28:53.385Z,993.77
2019-01-15T07:29:53.299Z,993.75
2019-01-15T07:30:53.215Z,993.81
2019-01-15T07:31:53.131Z,993.72
2019-01-15T07:32:53.048Z,993.74
2019-01-15T07:33:52.961Z,993.72
2019-01-15T07:34:52.877Z,993.76
2019-01-15T07:35:52.794Z,993.66
2019-01-15T07:36:52.709Z,993.75
2019-01-15T07:37:52.624Z,993.75
2019-01-15T07:38:52.540Z,993.75
2019-01-15T07:39:52.456Z,993.76
2019-01-15T07:40:52.373Z,993.89
2019-01-15T07:41:52.288Z,993.81
2019-01-15T07:42:52.203Z,993.83
2019-01-15T07:43:52.120Z,993.82
2019-01-15T07:44:52.035Z,993.80
2019-01-15T07:45:51.950Z,993.83
2019-01-15T07:46:51.867Z,993.83
2019-01-15T07:47:51.782Z,993.87
2019-01-15T07:48:51.697Z,993.83
2019-01-15T07:49:51.613Z,993.82
2019-01-15T07:50:51.631Z,993.77
2019-01-15T07:51:51.447Z,993.83
2019-01-15T07:52:51.362Z,993.91
2019-01-15T07:53:51.276Z,993.97
2019-01-15T07:54:51.192Z,993.99
2019-01-15T07:55:51.110Z,994.01
2019-01-15T07:56:51.024Z,994.03
2019-01-15T07:57:50.940Z,994.07
2019-01-15T07:58:50.856Z,994.06
2019-01-15T07:59:50.772Z,994.07
2019-01-15T08:00:50.689Z,994.01
2019-01-15T08:01:50.608Z,994.01
2019-01-15T08:02:50.521Z,993.98
2019-01-15T08:03:50.436Z,994.13
2019-01-15T08:04:50.353Z,994.02
2019-01-15T08:05:50.268Z,994.01
2019-01-15T08:06:50.184Z,994.10
2019-01-15T08:07:50.100Z,994.06
2019-01-15T08:08:50.015Z,994.14
2019-01-15T08:09:49.931Z,994.11
2019-01-15T08:10:56.780Z,994.06
2019-01-15T08:11:49.765Z,994.10
2019-01-15T08:12:49.681Z,994.09
2019-01-15T08:13:49.596Z,994.14
2019-01-15T08:14:49.513Z,994.05
2019-01-15T08:15:49.430Z,994.11
2019-01-15T08:16:49.349Z,994.08
2019-01-15T08:17:49.268Z,994.08
2019-01-15T08:18:49.179Z,994.08
2019-01-15T08:19:49.096Z,994.11
2019-01-15T08:20:49.013Z,994.18
2019-01-15T08:21:48.927Z,994.08
2019-01-15T08:22:48.842Z,994.18
2019-01-15T08:23:48.761Z,994.17
2019-01-15T08:24:48.676Z,994.11
2019-01-15T08:25:48.593Z,994.10
2019-01-15T08:26:48.508Z,994.02
2019-01-15T08:27:48.425Z,994.02
2019-01-15T08:28:48.443Z,994.01
2019-01-15T08:29:48.257Z,993.98
2019-01-15T08:30:48.174Z,994.01
2019-01-15T08:31:48.090Z,993.99
2019-01-15T08:32:48.006Z,994.00
2019-01-15T08:33:47.921Z,993.98
2019-01-15T08:34:47.837Z,994.00
2019-01-15T08:35:47.757Z,993.97
2019-01-15T08:36:47.672Z,993.96
2019-01-15T08:37:47.585Z,993.98
2019-01-15T08:38:47.504Z,994.02
2019-01-15T08:39:47.420Z,994.04
2019-01-15T08:40:47.335Z,993.92
2019-01-15T08:41:47.252Z,993.85
2019-01-15T08:42:47.170Z,993.89
2019-01-15T08:43:47.114Z,993.89
2019-01-15T08:44:47.003Z,993.86
2019-01-15T08:45:46.919Z,993.88
2019-01-15T08:46:46.835Z,993.82
2019-01-15T08:47:46.752Z,993.79
2019-01-15T08:48:46.669Z,993.75
2019-01-15T08:49:46.584Z,993.84
2019-01-15T08:50:46.502Z,993.84
2019-01-15T08:51:46.418Z,993.88
2019-01-15T08:52:46.336Z,993.94
2019-01-15T08:53:46.254Z,993.90
2019-01-15T08:54:46.169Z,993.87
2019-01-15T08:55:46.085Z,993.97
2019-01-15T08:56:46.003Z,993.93
2019-01-15T08:57:45.918Z,993.96
2019-01-15T08:58:45.835Z,993.91
2019-01-15T08:59:45.752Z,993.95
2019-01-15T09:00:45.670Z,993.91
2019-01-15T09:01:45.587Z,993.88
2019-01-15T09:02:45.502Z,993.79
2019-01-15T09:03:45.420Z,993.91
2019-01-15T09:04:45.336Z,993.88
2019-01-15T09:05:45.252Z,993.82
2019-01-15T09:06:45.169Z,993.84
2019-01-15T09:07:45.090Z,993.85
2019-01-15T09:08:45.004Z,993.90
2019-01-15T09:09:44.921Z,993.89
2019-01-15T09:10:44.838Z,993.94
2019-01-15T09:11:44.754Z,993.93
2019-01-15T09:12:44.674Z,993.98
2019-01-15T09:13:44.589Z,993.97
2019-01-15T09:14:44.505Z,994.04
2019-01-15T09:15:44.422Z,994.06
2019-01-15T09:16:44.340Z,994.02
2019-01-15T09:17:44.254Z,994.08
2019-01-15T09:18:44.273Z,994.03
2019-01-15T09:19:44.090Z,994.18
2019-01-15T09:20:44.005Z,994.21
2019-01-15T09:21:43.924Z,994.10
2019-01-15T09:22:43.897Z,994.06
2019-01-15T09:23:43.757Z,994.11
2019-01-15T09:24:43.674Z,994.03
2019-01-15T09:25:43.589Z,994.09
2019-01-15T09:26:43.508Z,994.04
2019-01-15T09:27:43.424Z,994.05
2019-01-15T09:28:43.341Z,994.06
2019-01-15T09:29:43.260Z,993.99
2019-01-15T09:30:43.174Z,993.97
2019-01-15T09:31:43.092Z,994.03
2019-01-15T09:32:43.009Z,994.07
2019-01-15T09:33:42.926Z,994.03
2019-01-15T09:34:42.842Z,994.05
2019-01-15T09:35:42.760Z,994.15
2019-01-15T09:36:42.677Z,994.00
2019-01-15T09:37:42.592Z,993.97
2019-01-15T09:38:42.510Z,993.98
2019-01-15T09:39:42.425Z,994.01
2019-01-15T09:40:42.346Z,993.96
2019-01-15T09:41:42.260Z,993.95
2019-01-15T09:42:42.177Z,993.94
2019-01-15T09:43:42.093Z,993.97
2019-01-15T09:44:42.012Z,993.93
2019-01-15T09:45:41.928Z,993.93
2019-01-15T09:46:41.845Z,993.98
2019-01-15T09:47:41.763Z,993.96
2019-01-15T09:48:41.684Z,994.02
2019-01-15T09:49:41.596Z,994.03
2019-01-15T09:50:41.512Z,994.00
2019-01-15T09:51:41.431Z,994.00
2019-01-15T09:52:41.352Z,994.02
2019-01-15T09:53:41.265Z,993.95
2019-01-15T09:54:41.183Z,993.90
2019-01-15T09:55:41.100Z,993.90
2019-01-15T09:56:41.067Z,993.94
2019-01-15T09:57:40.933Z,993.91
2019-01-15T09:58:40.851Z,993.97
2019-01-15T09:59:40.769Z,993.92
2019-01-15T10:00:40.686Z,993.91
2019-01-15T10:01:40.603Z,993.90
2019-01-15T10:02:40.521Z,993.92
2019-01-15T10:03:40.438Z,993.91
2019-01-15T10:04:40.355Z,993.78
2019-01-15T10:05:40.270Z,993.74
2019-01-15T10:06:40.189Z,993.76
2019-01-15T10:07:40.107Z,993.70
2019-01-15T10:08:40.026Z,993.78
2019-01-15T10:09:39.941Z,993.77
2019-01-15T10:10:39.862Z,993.77
2019-01-15T10:11:39.778Z,993.81
2019-01-15T10:12:39.694Z,993.77
2019-01-15T10:13:39.612Z,993.77
2019-01-15T10:14:41.303Z,993.77
2019-01-15T10:15:39.446Z,993.74
2019-01-15T10:16:39.363Z,993.77
2019-01-15T10:17:39.281Z,993.75
2019-01-15T10:18:39.197Z,993.68
2019-01-15T10:19:39.114Z,993.68
2019-01-15T10:20:39.032Z,993.66
2019-01-15T10:21:39.861Z,993.63
2019-01-15T10:22:38.867Z,993.73
2019-01-15T10:23:38.833Z,993.79
2019-01-15T10:24:38.701Z,993.73
2019-01-15T10:25:38.617Z,993.70
2019-01-15T10:26:38.535Z,993.74
2019-01-15T10:27:38.451Z,993.78
2019-01-15T10:28:38.369Z,993.76
2019-01-15T10:29:38.286Z,993.76
2019-01-15T10:30:38.206Z,993.76
2019-01-15T10:31:38.119Z,993.84
2019-01-15T10:32:38.038Z,993.74
2019-01-15T10:33:37.954Z,993.74
2019-01-15T10:34:37.874Z,993.77
2019-01-15T10:35:37.790Z,993.87
2019-01-15T10:36:37.705Z,993.82
2019-01-15T10:37:37.623Z,993.80
2019-01-15T10:38:37.540Z,993.81
2019-01-15T10:39:37.457Z,993.76
2019-01-15T10:40:37.374Z,993.70
2019-01-15T10:41:37.290Z,993.71
2019-01-15T10:42:37.210Z,993.66
2019-01-15T10:43:37.126Z,993.62
2019-01-15T10:44:37.040Z,993.63
2019-01-15T10:45:36.958Z,993.61
2019-01-15T10:46:36.875Z,993.57
2019-01-15T10:47:36.792Z,993.56
2019-01-15T10:48:36.709Z,993.53
2019-01-15T10:49:36.627Z,993.51
2019-01-15T10:50:36.543Z,993.49
2019-01-15T10:51:36.459Z,993.46
2019-01-15T10:52:36.377Z,993.43
2019-01-15T10:53:36.294Z,993.45
2019-01-15T10:54:36.211Z,993.44
2019-01-15T10:55:36.127Z,993.40
2019-01-15T10:56:36.042Z,993.41
2019-01-15T10:57:35.960Z,993.43
2019-01-15T10:58:35.878Z,993.42
2019-01-15T10:59:35.796Z,993.40
2019-01-15T11:00:35.712Z,993.33
2019-01-15T11:01:35.628Z,993.37
2019-01-15T11:02:35.546Z,993.32
2019-01-15T11:03:35.462Z,993.29
2019-01-15T11:04:35.380Z,993.31
2019-01-15T11:05:35.301Z,993.27
2019-01-15T11:06:35.215Z,993.29
2019-01-15T11:07:35.132Z,993.31
2019-01-15T11:08:35.051Z,993.22
2019-01-15T11:09:34.967Z,993.21
2019-01-15T11:10:34.887Z,993.27
2019-01-15T11:11:34.802Z,993.29
2019-01-15T11:12:34.719Z,993.24
2019-01-15T11:13:34.637Z,993.25
2019-01-15T11:14:34.554Z,993.22
2019-01-15T11:15:34.472Z,993.27
2019-01-15T11:16:34.390Z,993.21
2019-01-15T11:17:34.306Z,993.19
2019-01-15T11:18:34.225Z,993.21
2019-01-15T11:19:34.143Z,993.20
2019-01-15T11:20:34.061Z,993.17
2019-01-15T11:21:33.977Z,993.10
2019-01-15T11:22:33.898Z,993.18
2019-01-15T11:23:33.812Z,993.21
2019-01-15T11:24:33.730Z,993.19
2019-01-15T11:25:33.647Z,993.20
2019-01-15T11:26:33.569Z,993.15
2019-01-15T11:27:33.483Z,993.11
2019-01-15T11:28:33.401Z,993.16
2019-01-15T11:29:33.318Z,993.10
2019-01-15T11:30:33.237Z,993.14
2019-01-15T11:31:33.154Z,993.14
2019-01-15T11:32:33.073Z,993.18
2019-01-15T11:33:32.990Z,993.08
2019-01-15T11:34:32.909Z,993.11
2019-01-15T11:35:32.826Z,993.02
2019-01-15T11:36:32.744Z,993.02
2019-01-15T11:37:32.661Z,993.03
2019-01-15T11:38:32.580Z,993.01
2019-01-15T11:39:32.497Z,993.07
2019-01-15T11:40:32.417Z,993.02
2019-01-15T11:41:32.334Z,993.04
2019-01-15T11:42:32.252Z,993.08
2019-01-15T11:43:32.170Z,993.06
2019-01-15T11:44:32.089Z,993.04
2019-01-15T11:45:32.009Z,992.95
2019-01-15T11:46:31.925Z,992.96
2019-01-15T11:47:31.843Z,992.95
2019-01-15T11:48:31.760Z,992.98
2019-01-15T11:49:31.678Z,992.98
2019-01-15T11:50:31.594Z,993.00
2019-01-15T11:51:31.514Z,992.96
2019-01-15T11:52:31.431Z,992.97
2019-01-15T11:53:31.348Z,992.90
2019-01-15T11:54:31.269Z,992.99
2019-01-15T11:55:31.185Z,992.93
2019-01-15T11:56:31.104Z,993.03
2019-01-15T11:57:31.021Z,992.98
2019-01-15T11:58:30.938Z,992.98
2019-01-15T11:59:30.857Z,992.93
2019-01-15T12:00:30.775Z,992.99
2019-01-15T12:01:30.695Z,992.91
2019-01-15T12:02:30.613Z,992.91
2019-01-15T12:03:30.528Z,992.88
2019-01-15T12:04:30.448Z,992.82
2019-01-15T12:05:30.364Z,992.83
2019-01-15T12:06:30.283Z,992.78
2019-01-15T12:07:30.205Z,992.81
2019-01-15T12:08:30.120Z,992.79
2019-01-15T12:09:30.036Z,992.82
2019-01-15T12:10:29.958Z,992.76
2019-01-15T12:11:29.875Z,992.72
2019-01-15T12:12:29.790Z,992.74
2019-01-15T12:13:29.708Z,992.73
2019-01-15T12:14:29.627Z,992.77
2019-01-15T12:15:29.545Z,992.76
2019-01-15T12:16:29.464Z,992.73
2019-01-15T12:17:29.379Z,992.69
2019-01-15T12:18:29.299Z,992.75
2019-01-15T12:19:29.217Z,992.73
2019-01-15T12:20:29.136Z,992.70
2019-01-15T12:21:29.053Z,992.67
2019-01-15T12:22:28.970Z,992.65
2019-01-15T12:23:28.889Z,992.64
2019-01-15T12:24:28.806Z,992.66
2019-01-15T12:25:28.723Z,992.67
2019-01-15T12:26:28.640Z,992.68
2019-01-15T12:27:28.560Z,992.58